sensor_id;sensor_type;location;lat;lon;timestamp;temperature;humidity
29403;DHT22;16382;59.942;30.472;2022-11-27T00:00:07;-8.50;99.90
29403;DHT22;16382;59.942;30.472;2022-11-27T00:02:38;-8.50;99.90
29403;DHT22;16382;59.942;30.472;2022-11-27T00:05:08;-8.50;99.90
29403;DHT22;16382;59.942;30.472;2022-11-27T00:07:37;-8.50;99.90
29403;DHT22;16382;59.942;30.472;2022-11-27T00:10:06;-8.50;99.90
29403;DHT22;16382;59.942;30.472;2022-11-27T00:12:34;-8.50;99.90
29403;DHT22;16382;59.942;30.472;2022-11-27T00:15:02;-8.50;99.90
29403;DHT22;16382;59.942;30.472;2022-11-27T00:17:30;-8.50;99.90
29403;DHT22;16382;59.942;30.472;2022-11-27T00:19:58;-8.50;99.90
29403;DHT22;16382;59.942;30.472;2022-11-27T00:22:27;-8.50;99.90
29403;DHT22;16382;59.942;30.472;2022-11-27T00:24:54;-8.50;99.90
29403;DHT22;16382;59.942;30.472;2022-11-27T00:27:21;-8.50;99.90
29403;DHT22;16382;59.942;30.472;2022-11-27T00:29:49;-8.40;99.90
29403;DHT22;16382;59.942;30.472;2022-11-27T00:32:17;-8.40;99.90
29403;DHT22;16382;59.942;30.472;2022-11-27T00:34:44;-8.40;99.90
29403;DHT22;16382;59.942;30.472;2022-11-27T00:37:11;-8.40;99.90
29403;DHT22;16382;59.942;30.472;2022-11-27T00:39:40;-8.40;99.90
29403;DHT22;16382;59.942;30.472;2022-11-27T00:42:08;-8.40;99.90
29403;DHT22;16382;59.942;30.472;2022-11-27T00:44:35;-8.40;99.90
29403;DHT22;16382;59.942;30.472;2022-11-27T00:47:03;-8.40;99.90
29403;DHT22;16382;59.942;30.472;2022-11-27T00:49:30;-8.40;99.90
29403;DHT22;16382;59.942;30.472;2022-11-27T00:51:58;-8.40;99.90
29403;DHT22;16382;59.942;30.472;2022-11-27T00:54:25;-8.40;99.90
29403;DHT22;16382;59.942;30.472;2022-11-27T00:56:54;-8.40;99.90
29403;DHT22;16382;59.942;30.472;2022-11-27T00:59:21;-8.40;99.90
29403;DHT22;16382;59.942;30.472;2022-11-27T01:01:49;-8.40;99.90
29403;DHT22;16382;59.942;30.472;2022-11-27T01:04:16;-8.40;99.90
29403;DHT22;16382;59.942;30.472;2022-11-27T01:06:44;-8.40;99.90
29403;DHT22;16382;59.942;30.472;2022-11-27T01:09:12;-8.40;99.90
29403;DHT22;16382;59.942;30.472;2022-11-27T01:11:40;-8.40;99.90
29403;DHT22;16382;59.942;30.472;2022-11-27T01:14:12;-8.50;99.90
29403;DHT22;16382;59.942;30.472;2022-11-27T01:16:41;-8.40;99.90
29403;DHT22;16382;59.942;30.472;2022-11-27T01:19:10;-8.40;99.90
29403;DHT22;16382;59.942;30.472;2022-11-27T01:21:39;-8.30;99.90
29403;DHT22;16382;59.942;30.472;2022-11-27T01:24:08;-8.30;99.90
29403;DHT22;16382;59.942;30.472;2022-11-27T01:26:36;-8.30;99.90
29403;DHT22;16382;59.942;30.472;2022-11-27T01:29:03;-8.30;99.90
29403;DHT22;16382;59.942;30.472;2022-11-27T01:31:33;-8.20;99.90
29403;DHT22;16382;59.942;30.472;2022-11-27T01:34:03;-8.20;99.90
29403;DHT22;16382;59.942;30.472;2022-11-27T01:36:32;-8.20;99.90
29403;DHT22;16382;59.942;30.472;2022-11-27T01:39:01;-8.20;99.90
29403;DHT22;16382;59.942;30.472;2022-11-27T01:41:30;-8.20;99.90
29403;DHT22;16382;59.942;30.472;2022-11-27T01:44:02;-8.20;99.90
29403;DHT22;16382;59.942;30.472;2022-11-27T01:46:52;-8.20;99.90
29403;DHT22;16382;59.942;30.472;2022-11-27T01:49:24;-8.20;99.90
29403;DHT22;16382;59.942;30.472;2022-11-27T01:51:58;-8.20;99.90
29403;DHT22;16382;59.942;30.472;2022-11-27T01:54:30;-8.20;99.90
29403;DHT22;16382;59.942;30.472;2022-11-27T01:57:03;-8.30;99.90
29403;DHT22;16382;59.942;30.472;2022-11-27T01:59:33;-8.30;99.90
29403;DHT22;16382;59.942;30.472;2022-11-27T02:02:02;-8.40;99.90
29403;DHT22;16382;59.942;30.472;2022-11-27T02:04:30;-8.40;99.90
29403;DHT22;16382;59.942;30.472;2022-11-27T02:06:58;-8.50;99.90
29403;DHT22;16382;59.942;30.472;2022-11-27T02:09:26;-8.50;99.90
29403;DHT22;16382;59.942;30.472;2022-11-27T02:12:00;-8.60;99.90
29403;DHT22;16382;59.942;30.472;2022-11-27T02:15:02;-8.60;99.90
29403;DHT22;16382;59.942;30.472;2022-11-27T02:17:36;-8.70;99.90
29403;DHT22;16382;59.942;30.472;2022-11-27T02:20:21;-8.70;99.90
29403;DHT22;16382;59.942;30.472;2022-11-27T02:23:28;-8.70;99.90
29403;DHT22;16382;59.942;30.472;2022-11-27T02:26:28;-8.70;99.90
29403;DHT22;16382;59.942;30.472;2022-11-27T02:29:08;-8.70;99.90
29403;DHT22;16382;59.942;30.472;2022-11-27T02:31:39;-8.70;99.90
29403;DHT22;16382;59.942;30.472;2022-11-27T02:34:21;-8.70;99.90
29403;DHT22;16382;59.942;30.472;2022-11-27T02:36:57;-8.70;99.90
29403;DHT22;16382;59.942;30.472;2022-11-27T02:39:31;-8.70;99.90
29403;DHT22;16382;59.942;30.472;2022-11-27T02:42:06;-8.70;99.90
29403;DHT22;16382;59.942;30.472;2022-11-27T02:44:41;-8.60;99.90
29403;DHT22;16382;59.942;30.472;2022-11-27T02:47:18;-8.60;99.90
29403;DHT22;16382;59.942;30.472;2022-11-27T02:49:48;-8.60;99.90
29403;DHT22;16382;59.942;30.472;2022-11-27T02:52:18;-8.60;99.90
29403;DHT22;16382;59.942;30.472;2022-11-27T02:54:47;-8.60;99.90
29403;DHT22;16382;59.942;30.472;2022-11-27T02:57:16;-8.60;99.90
29403;DHT22;16382;59.942;30.472;2022-11-27T02:59:48;-8.70;99.90
29403;DHT22;16382;59.942;30.472;2022-11-27T03:02:19;-8.70;99.90
29403;DHT22;16382;59.942;30.472;2022-11-27T03:04:51;-8.70;99.90
29403;DHT22;16382;59.942;30.472;2022-11-27T03:07:23;-8.70;99.90
29403;DHT22;16382;59.942;30.472;2022-11-27T03:09:56;-8.70;99.90
29403;DHT22;16382;59.942;30.472;2022-11-27T03:12:25;-8.70;99.90
29403;DHT22;16382;59.942;30.472;2022-11-27T03:14:53;-8.70;99.90
29403;DHT22;16382;59.942;30.472;2022-11-27T03:17:34;-8.70;99.90
29403;DHT22;16382;59.942;30.472;2022-11-27T03:20:12;-8.60;99.90
29403;DHT22;16382;59.942;30.472;2022-11-27T03:22:43;-8.60;99.90
29403;DHT22;16382;59.942;30.472;2022-11-27T03:25:11;-8.60;99.90
29403;DHT22;16382;59.942;30.472;2022-11-27T03:27:43;-8.70;99.90
29403;DHT22;16382;59.942;30.472;2022-11-27T03:30:15;-8.60;99.90
29403;DHT22;16382;59.942;30.472;2022-11-27T03:32:43;-8.60;99.90
29403;DHT22;16382;59.942;30.472;2022-11-27T03:35:11;-8.50;99.90
29403;DHT22;16382;59.942;30.472;2022-11-27T03:37:41;-8.60;99.90
29403;DHT22;16382;59.942;30.472;2022-11-27T03:40:10;-8.50;99.90
29403;DHT22;16382;59.942;30.472;2022-11-27T03:42:49;-8.40;99.90
29403;DHT22;16382;59.942;30.472;2022-11-27T03:45:29;-8.40;99.90
29403;DHT22;16382;59.942;30.472;2022-11-27T03:48:09;-8.40;99.90
29403;DHT22;16382;59.942;30.472;2022-11-27T03:50:50;-8.40;99.90
29403;DHT22;16382;59.942;30.472;2022-11-27T03:53:32;-8.40;99.90
29403;DHT22;16382;59.942;30.472;2022-11-27T03:56:06;-8.40;99.90
29403;DHT22;16382;59.942;30.472;2022-11-27T03:58:43;-8.40;99.90
29403;DHT22;16382;59.942;30.472;2022-11-27T04:01:16;-8.30;99.90
29403;DHT22;16382;59.942;30.472;2022-11-27T04:03:45;-8.30;99.90
29403;DHT22;16382;59.942;30.472;2022-11-27T04:06:13;-8.30;99.90
29403;DHT22;16382;59.942;30.472;2022-11-27T04:08:41;-8.20;99.90
29403;DHT22;16382;59.942;30.472;2022-11-27T04:11:08;-8.30;99.90
29403;DHT22;16382;59.942;30.472;2022-11-27T04:13:35;-8.30;99.90
29403;DHT22;16382;59.942;30.472;2022-11-27T04:16:03;-8.30;99.90
29403;DHT22;16382;59.942;30.472;2022-11-27T04:18:33;-8.30;99.90
29403;DHT22;16382;59.942;30.472;2022-11-27T04:21:00;-8.30;99.90
29403;DHT22;16382;59.942;30.472;2022-11-27T04:23:27;-8.30;99.90
29403;DHT22;16382;59.942;30.472;2022-11-27T04:25:55;-8.20;99.90
29403;DHT22;16382;59.942;30.472;2022-11-27T04:28:22;-8.20;99.90
29403;DHT22;16382;59.942;30.472;2022-11-27T04:30:51;-8.10;99.90
29403;DHT22;16382;59.942;30.472;2022-11-27T04:33:19;-8.00;99.90
29403;DHT22;16382;59.942;30.472;2022-11-27T04:35:48;-8.00;99.90
29403;DHT22;16382;59.942;30.472;2022-11-27T04:38:16;-7.90;99.90
29403;DHT22;16382;59.942;30.472;2022-11-27T04:40:43;-7.90;99.90
29403;DHT22;16382;59.942;30.472;2022-11-27T04:43:11;-7.90;99.90
29403;DHT22;16382;59.942;30.472;2022-11-27T04:45:38;-8.00;99.90
29403;DHT22;16382;59.942;30.472;2022-11-27T04:48:06;-8.00;99.90
29403;DHT22;16382;59.942;30.472;2022-11-27T04:50:33;-8.00;99.90
29403;DHT22;16382;59.942;30.472;2022-11-27T04:53:02;-8.00;99.90
29403;DHT22;16382;59.942;30.472;2022-11-27T04:55:29;-8.00;99.90
29403;DHT22;16382;59.942;30.472;2022-11-27T04:57:57;-7.90;99.90
29403;DHT22;16382;59.942;30.472;2022-11-27T05:00:24;-7.90;99.90
29403;DHT22;16382;59.942;30.472;2022-11-27T05:02:52;-7.80;99.90
29403;DHT22;16382;59.942;30.472;2022-11-27T05:05:19;-7.80;99.90
29403;DHT22;16382;59.942;30.472;2022-11-27T05:07:46;-7.80;99.90
29403;DHT22;16382;59.942;30.472;2022-11-27T05:10:15;-7.80;99.90
29403;DHT22;16382;59.942;30.472;2022-11-27T05:12:42;-7.70;99.90
29403;DHT22;16382;59.942;30.472;2022-11-27T05:15:10;-7.70;99.90
29403;DHT22;16382;59.942;30.472;2022-11-27T05:17:38;-7.70;99.90
29403;DHT22;16382;59.942;30.472;2022-11-27T05:20:06;-7.80;99.90
29403;DHT22;16382;59.942;30.472;2022-11-27T05:22:34;-7.70;99.90
29403;DHT22;16382;59.942;30.472;2022-11-27T05:25:02;-7.70;99.90
29403;DHT22;16382;59.942;30.472;2022-11-27T05:27:31;-7.70;99.90
29403;DHT22;16382;59.942;30.472;2022-11-27T05:29:59;-7.70;99.90
29403;DHT22;16382;59.942;30.472;2022-11-27T05:32:26;-7.60;99.90
29403;DHT22;16382;59.942;30.472;2022-11-27T05:34:53;-7.60;99.90
29403;DHT22;16382;59.942;30.472;2022-11-27T05:37:21;-7.60;99.90
29403;DHT22;16382;59.942;30.472;2022-11-27T05:39:48;-7.60;99.90
29403;DHT22;16382;59.942;30.472;2022-11-27T05:42:16;-7.60;99.90
29403;DHT22;16382;59.942;30.472;2022-11-27T05:44:45;-7.60;99.90
29403;DHT22;16382;59.942;30.472;2022-11-27T05:47:12;-7.70;99.90
29403;DHT22;16382;59.942;30.472;2022-11-27T05:49:40;-7.70;99.90
29403;DHT22;16382;59.942;30.472;2022-11-27T05:52:07;-7.80;99.90
29403;DHT22;16382;59.942;30.472;2022-11-27T05:54:35;-7.90;99.90
29403;DHT22;16382;59.942;30.472;2022-11-27T05:57:02;-7.90;99.90
29403;DHT22;16382;59.942;30.472;2022-11-27T05:59:30;-7.80;99.90
29403;DHT22;16382;59.942;30.472;2022-11-27T06:01:58;-7.70;99.90
29403;DHT22;16382;59.942;30.472;2022-11-27T06:04:26;-7.70;99.90
29403;DHT22;16382;59.942;30.472;2022-11-27T06:06:54;-7.60;99.90
29403;DHT22;16382;59.942;30.472;2022-11-27T06:09:21;-7.50;99.90
29403;DHT22;16382;59.942;30.472;2022-11-27T06:11:49;-7.60;99.90
29403;DHT22;16382;59.942;30.472;2022-11-27T06:14:16;-7.50;99.90
29403;DHT22;16382;59.942;30.472;2022-11-27T06:16:44;-7.50;99.90
29403;DHT22;16382;59.942;30.472;2022-11-27T06:19:13;-7.40;99.90
29403;DHT22;16382;59.942;30.472;2022-11-27T06:21:40;-7.40;99.90
29403;DHT22;16382;59.942;30.472;2022-11-27T06:24:09;-7.40;99.90
29403;DHT22;16382;59.942;30.472;2022-11-27T06:26:36;-7.30;99.90
29403;DHT22;16382;59.942;30.472;2022-11-27T06:29:04;-7.30;99.90
29403;DHT22;16382;59.942;30.472;2022-11-27T06:31:32;-7.20;99.90
29403;DHT22;16382;59.942;30.472;2022-11-27T06:34:00;-7.20;99.90
29403;DHT22;16382;59.942;30.472;2022-11-27T06:36:31;-7.20;99.90
29403;DHT22;16382;59.942;30.472;2022-11-27T06:38:59;-7.20;99.90
29403;DHT22;16382;59.942;30.472;2022-11-27T06:41:27;-7.30;99.90
29403;DHT22;16382;59.942;30.472;2022-11-27T06:43:57;-7.30;99.90
29403;DHT22;16382;59.942;30.472;2022-11-27T06:46:26;-7.20;99.90
29403;DHT22;16382;59.942;30.472;2022-11-27T06:48:55;-7.20;99.90
29403;DHT22;16382;59.942;30.472;2022-11-27T06:51:24;-7.20;99.90
29403;DHT22;16382;59.942;30.472;2022-11-27T06:53:54;-7.20;99.90
29403;DHT22;16382;59.942;30.472;2022-11-27T06:56:24;-7.10;99.90
29403;DHT22;16382;59.942;30.472;2022-11-27T06:58:54;-7.20;99.90
29403;DHT22;16382;59.942;30.472;2022-11-27T07:01:25;-7.20;99.90
29403;DHT22;16382;59.942;30.472;2022-11-27T07:03:55;-7.10;99.90
29403;DHT22;16382;59.942;30.472;2022-11-27T07:06:24;-7.10;99.90
29403;DHT22;16382;59.942;30.472;2022-11-27T07:08:54;-7.10;99.90
29403;DHT22;16382;59.942;30.472;2022-11-27T07:11:23;-7.10;99.90
29403;DHT22;16382;59.942;30.472;2022-11-27T07:13:54;-7.00;99.90
29403;DHT22;16382;59.942;30.472;2022-11-27T07:16:23;-6.90;99.90
29403;DHT22;16382;59.942;30.472;2022-11-27T07:18:52;-6.90;99.90
29403;DHT22;16382;59.942;30.472;2022-11-27T07:21:21;-6.80;99.90
29403;DHT22;16382;59.942;30.472;2022-11-27T07:23:48;-6.80;99.90
29403;DHT22;16382;59.942;30.472;2022-11-27T07:26:22;-6.80;99.90
29403;DHT22;16382;59.942;30.472;2022-11-27T07:28:52;-6.80;99.90
29403;DHT22;16382;59.942;30.472;2022-11-27T07:31:21;-6.70;99.90
29403;DHT22;16382;59.942;30.472;2022-11-27T07:33:49;-6.70;99.90
29403;DHT22;16382;59.942;30.472;2022-11-27T07:36:20;-6.60;99.90
29403;DHT22;16382;59.942;30.472;2022-11-27T07:38:48;-6.60;99.90
29403;DHT22;16382;59.942;30.472;2022-11-27T07:41:20;-6.60;99.90
29403;DHT22;16382;59.942;30.472;2022-11-27T07:43:48;-6.60;99.90
29403;DHT22;16382;59.942;30.472;2022-11-27T07:46:18;-6.60;99.90
29403;DHT22;16382;59.942;30.472;2022-11-27T07:48:46;-6.60;99.90
29403;DHT22;16382;59.942;30.472;2022-11-27T07:51:17;-6.60;99.90
29403;DHT22;16382;59.942;30.472;2022-11-27T07:53:45;-6.50;99.90
29403;DHT22;16382;59.942;30.472;2022-11-27T07:56:14;-6.50;99.90
29403;DHT22;16382;59.942;30.472;2022-11-27T07:58:43;-6.50;99.90
29403;DHT22;16382;59.942;30.472;2022-11-27T08:01:13;-6.40;99.90
29403;DHT22;16382;59.942;30.472;2022-11-27T08:03:42;-6.40;99.90
29403;DHT22;16382;59.942;30.472;2022-11-27T08:06:14;-6.30;99.90
29403;DHT22;16382;59.942;30.472;2022-11-27T08:08:44;-6.30;99.90
29403;DHT22;16382;59.942;30.472;2022-11-27T08:11:22;-6.20;99.90
29403;DHT22;16382;59.942;30.472;2022-11-27T08:13:55;-6.20;99.90
29403;DHT22;16382;59.942;30.472;2022-11-27T08:16:27;-6.20;99.90
29403;DHT22;16382;59.942;30.472;2022-11-27T08:18:55;-6.10;99.90
29403;DHT22;16382;59.942;30.472;2022-11-27T08:21:28;-6.20;99.90
29403;DHT22;16382;59.942;30.472;2022-11-27T08:23:56;-6.20;99.90
29403;DHT22;16382;59.942;30.472;2022-11-27T08:26:23;-6.10;99.90
29403;DHT22;16382;59.942;30.472;2022-11-27T08:28:53;-6.10;99.90
29403;DHT22;16382;59.942;30.472;2022-11-27T08:31:21;-6.00;99.90
29403;DHT22;16382;59.942;30.472;2022-11-27T08:33:51;-5.90;99.90
29403;DHT22;16382;59.942;30.472;2022-11-27T08:36:19;-5.90;99.90
29403;DHT22;16382;59.942;30.472;2022-11-27T08:38:50;-6.00;99.90
29403;DHT22;16382;59.942;30.472;2022-11-27T08:41:17;-6.00;99.90
29403;DHT22;16382;59.942;30.472;2022-11-27T08:43:45;-6.00;99.90
29403;DHT22;16382;59.942;30.472;2022-11-27T08:46:14;-6.00;99.90
29403;DHT22;16382;59.942;30.472;2022-11-27T08:48:46;-6.00;99.90
29403;DHT22;16382;59.942;30.472;2022-11-27T08:51:15;-6.00;99.90
29403;DHT22;16382;59.942;30.472;2022-11-27T08:53:42;-6.00;99.90
29403;DHT22;16382;59.942;30.472;2022-11-27T08:56:13;-6.10;99.90
29403;DHT22;16382;59.942;30.472;2022-11-27T08:58:43;-6.00;99.90
29403;DHT22;16382;59.942;30.472;2022-11-27T09:01:15;-6.10;99.90
29403;DHT22;16382;59.942;30.472;2022-11-27T09:03:44;-6.20;99.90
29403;DHT22;16382;59.942;30.472;2022-11-27T09:06:15;-6.10;99.90
29403;DHT22;16382;59.942;30.472;2022-11-27T09:08:44;-6.10;99.90
29403;DHT22;16382;59.942;30.472;2022-11-27T09:11:13;-6.00;99.90
29403;DHT22;16382;59.942;30.472;2022-11-27T09:13:43;-6.00;99.90
29403;DHT22;16382;59.942;30.472;2022-11-27T09:16:13;-6.00;99.90
29403;DHT22;16382;59.942;30.472;2022-11-27T09:18:44;-5.90;99.90
29403;DHT22;16382;59.942;30.472;2022-11-27T09:21:14;-5.90;99.90
29403;DHT22;16382;59.942;30.472;2022-11-27T09:23:42;-5.90;99.90
29403;DHT22;16382;59.942;30.472;2022-11-27T09:26:11;-5.80;99.90
29403;DHT22;16382;59.942;30.472;2022-11-27T09:28:40;-5.80;99.90
29403;DHT22;16382;59.942;30.472;2022-11-27T09:31:11;-5.70;99.90
29403;DHT22;16382;59.942;30.472;2022-11-27T09:33:41;-5.60;99.90
29403;DHT22;16382;59.942;30.472;2022-11-27T09:36:11;-5.50;99.90
29403;DHT22;16382;59.942;30.472;2022-11-27T09:38:40;-5.40;99.90
29403;DHT22;16382;59.942;30.472;2022-11-27T09:41:32;-5.30;99.90
29403;DHT22;16382;59.942;30.472;2022-11-27T09:44:12;-5.30;99.90
29403;DHT22;16382;59.942;30.472;2022-11-27T09:46:44;-5.30;99.90
29403;DHT22;16382;59.942;30.472;2022-11-27T09:49:16;-5.30;99.90
29403;DHT22;16382;59.942;30.472;2022-11-27T09:51:50;-5.20;99.90
29403;DHT22;16382;59.942;30.472;2022-11-27T09:54:23;-5.20;99.90
29403;DHT22;16382;59.942;30.472;2022-11-27T09:56:54;-5.10;99.90
29403;DHT22;16382;59.942;30.472;2022-11-27T09:59:26;-5.10;99.90
29403;DHT22;16382;59.942;30.472;2022-11-27T10:01:56;-5.10;99.90
29403;DHT22;16382;59.942;30.472;2022-11-27T10:04:25;-5.20;99.90
29403;DHT22;16382;59.942;30.472;2022-11-27T10:07:06;-5.20;99.90
29403;DHT22;16382;59.942;30.472;2022-11-27T10:09:53;-5.20;99.90
29403;DHT22;16382;59.942;30.472;2022-11-27T10:12:35;-5.20;99.90
29403;DHT22;16382;59.942;30.472;2022-11-27T10:15:14;-5.10;99.90
29403;DHT22;16382;59.942;30.472;2022-11-27T10:17:50;-5.00;99.90
29403;DHT22;16382;59.942;30.472;2022-11-27T10:20:27;-5.10;99.90
29403;DHT22;16382;59.942;30.472;2022-11-27T10:23:01;-5.00;99.90
29403;DHT22;16382;59.942;30.472;2022-11-27T10:25:36;-5.00;99.90
29403;DHT22;16382;59.942;30.472;2022-11-27T10:28:15;-5.00;99.90
29403;DHT22;16382;59.942;30.472;2022-11-27T10:30:49;-4.90;99.90
29403;DHT22;16382;59.942;30.472;2022-11-27T10:33:22;-5.00;99.90
29403;DHT22;16382;59.942;30.472;2022-11-27T10:35:55;-4.90;99.90
29403;DHT22;16382;59.942;30.472;2022-11-27T10:38:27;-4.90;99.90
29403;DHT22;16382;59.942;30.472;2022-11-27T10:41:05;-4.90;99.90
29403;DHT22;16382;59.942;30.472;2022-11-27T10:43:35;-4.90;99.90
29403;DHT22;16382;59.942;30.472;2022-11-27T10:46:07;-4.90;99.90
29403;DHT22;16382;59.942;30.472;2022-11-27T10:48:38;-4.80;99.90
29403;DHT22;16382;59.942;30.472;2022-11-27T10:51:12;-4.80;99.90
29403;DHT22;16382;59.942;30.472;2022-11-27T10:53:43;-4.80;99.90
29403;DHT22;16382;59.942;30.472;2022-11-27T10:56:26;-4.80;99.90
29403;DHT22;16382;59.942;30.472;2022-11-27T10:59:16;-4.80;99.90
29403;DHT22;16382;59.942;30.472;2022-11-27T11:01:47;-4.90;99.90
29403;DHT22;16382;59.942;30.472;2022-11-27T11:04:21;-4.80;99.90
29403;DHT22;16382;59.942;30.472;2022-11-27T11:06:53;-4.80;99.90
29403;DHT22;16382;59.942;30.472;2022-11-27T11:09:22;-4.80;99.90
29403;DHT22;16382;59.942;30.472;2022-11-27T11:11:52;-4.80;99.90
29403;DHT22;16382;59.942;30.472;2022-11-27T11:14:21;-4.80;99.90
29403;DHT22;16382;59.942;30.472;2022-11-27T11:16:50;-4.80;99.90
29403;DHT22;16382;59.942;30.472;2022-11-27T11:19:23;-4.70;99.90
29403;DHT22;16382;59.942;30.472;2022-11-27T11:21:53;-4.60;99.90
29403;DHT22;16382;59.942;30.472;2022-11-27T11:24:24;-4.70;99.90
29403;DHT22;16382;59.942;30.472;2022-11-27T11:26:53;-4.70;99.90
29403;DHT22;16382;59.942;30.472;2022-11-27T11:29:30;-4.70;99.90
29403;DHT22;16382;59.942;30.472;2022-11-27T11:32:05;-4.70;99.90
29403;DHT22;16382;59.942;30.472;2022-11-27T11:34:40;-4.70;99.90
29403;DHT22;16382;59.942;30.472;2022-11-27T11:37:20;-4.60;99.90
29403;DHT22;16382;59.942;30.472;2022-11-27T11:39:55;-4.60;99.90
29403;DHT22;16382;59.942;30.472;2022-11-27T11:42:26;-4.60;99.90
29403;DHT22;16382;59.942;30.472;2022-11-27T11:45:02;-4.60;99.90
29403;DHT22;16382;59.942;30.472;2022-11-27T11:47:32;-4.70;99.90
29403;DHT22;16382;59.942;30.472;2022-11-27T11:50:01;-4.60;99.90
29403;DHT22;16382;59.942;30.472;2022-11-27T11:52:40;-4.60;99.90
29403;DHT22;16382;59.942;30.472;2022-11-27T11:55:17;-4.60;99.90
29403;DHT22;16382;59.942;30.472;2022-11-27T11:57:57;-4.60;99.90
29403;DHT22;16382;59.942;30.472;2022-11-27T12:00:41;-4.60;99.90
29403;DHT22;16382;59.942;30.472;2022-11-27T12:03:24;-4.60;99.90
29403;DHT22;16382;59.942;30.472;2022-11-27T12:06:12;-4.50;99.90
29403;DHT22;16382;59.942;30.472;2022-11-27T12:09:06;-4.50;99.90
29403;DHT22;16382;59.942;30.472;2022-11-27T12:11:46;-4.50;99.90
29403;DHT22;16382;59.942;30.472;2022-11-27T12:14:26;-4.50;99.90
29403;DHT22;16382;59.942;30.472;2022-11-27T12:17:12;-4.50;99.90
29403;DHT22;16382;59.942;30.472;2022-11-27T12:26:13;-4.40;99.90
29403;DHT22;16382;59.942;30.472;2022-11-27T12:32:06;-4.40;99.90
29403;DHT22;16382;59.942;30.472;2022-11-27T12:34:54;-4.40;99.90
29403;DHT22;16382;59.942;30.472;2022-11-27T12:37:34;-4.40;99.90
29403;DHT22;16382;59.942;30.472;2022-11-27T12:40:19;-4.40;99.90
29403;DHT22;16382;59.942;30.472;2022-11-27T12:43:06;-4.40;99.90
29403;DHT22;16382;59.942;30.472;2022-11-27T12:45:43;-4.50;99.90
29403;DHT22;16382;59.942;30.472;2022-11-27T12:48:14;-4.50;99.90
29403;DHT22;16382;59.942;30.472;2022-11-27T12:50:49;-4.50;99.90
29403;DHT22;16382;59.942;30.472;2022-11-27T12:53:20;-4.50;99.90
29403;DHT22;16382;59.942;30.472;2022-11-27T12:56:05;-4.50;99.90
29403;DHT22;16382;59.942;30.472;2022-11-27T12:58:39;-4.50;99.90
29403;DHT22;16382;59.942;30.472;2022-11-27T13:01:14;-4.50;99.90
29403;DHT22;16382;59.942;30.472;2022-11-27T13:03:52;-4.50;99.90
29403;DHT22;16382;59.942;30.472;2022-11-27T13:06:33;-4.60;99.90
29403;DHT22;16382;59.942;30.472;2022-11-27T13:09:09;-4.60;99.90
29403;DHT22;16382;59.942;30.472;2022-11-27T13:11:40;-4.60;99.90
29403;DHT22;16382;59.942;30.472;2022-11-27T13:14:13;-4.70;99.90
29403;DHT22;16382;59.942;30.472;2022-11-27T13:16:45;-4.70;99.90
29403;DHT22;16382;59.942;30.472;2022-11-27T13:19:21;-4.60;99.90
29403;DHT22;16382;59.942;30.472;2022-11-27T13:21:52;-4.60;99.90
29403;DHT22;16382;59.942;30.472;2022-11-27T13:24:21;-4.60;99.90
29403;DHT22;16382;59.942;30.472;2022-11-27T13:26:55;-4.50;99.90
29403;DHT22;16382;59.942;30.472;2022-11-27T13:29:29;-4.60;99.90
29403;DHT22;16382;59.942;30.472;2022-11-27T13:31:59;-4.60;99.90
29403;DHT22;16382;59.942;30.472;2022-11-27T13:34:29;-4.60;99.90
29403;DHT22;16382;59.942;30.472;2022-11-27T13:37:01;-4.60;99.90
29403;DHT22;16382;59.942;30.472;2022-11-27T13:39:31;-4.50;99.90
29403;DHT22;16382;59.942;30.472;2022-11-27T13:42:03;-4.50;99.90
29403;DHT22;16382;59.942;30.472;2022-11-27T13:44:38;-4.50;99.90
29403;DHT22;16382;59.942;30.472;2022-11-27T13:47:10;-4.50;99.90
29403;DHT22;16382;59.942;30.472;2022-11-27T13:49:55;-4.50;99.90
29403;DHT22;16382;59.942;30.472;2022-11-27T13:53:40;-4.50;99.90
29403;DHT22;16382;59.942;30.472;2022-11-27T13:57:15;-4.50;99.90
29403;DHT22;16382;59.942;30.472;2022-11-27T13:59:56;-4.40;99.90
29403;DHT22;16382;59.942;30.472;2022-11-27T14:02:26;-4.40;99.90
29403;DHT22;16382;59.942;30.472;2022-11-27T14:05:10;-4.40;99.90
29403;DHT22;16382;59.942;30.472;2022-11-27T14:07:43;-4.40;99.90
29403;DHT22;16382;59.942;30.472;2022-11-27T14:10:14;-4.40;99.90
29403;DHT22;16382;59.942;30.472;2022-11-27T14:12:55;-4.40;99.90
29403;DHT22;16382;59.942;30.472;2022-11-27T14:15:27;-4.40;99.90
29403;DHT22;16382;59.942;30.472;2022-11-27T14:18:04;-4.30;99.90
29403;DHT22;16382;59.942;30.472;2022-11-27T14:20:37;-4.30;99.90
29403;DHT22;16382;59.942;30.472;2022-11-27T14:23:11;-4.30;99.90
29403;DHT22;16382;59.942;30.472;2022-11-27T14:25:39;-4.30;99.90
29403;DHT22;16382;59.942;30.472;2022-11-27T14:28:13;-4.20;99.90
29403;DHT22;16382;59.942;30.472;2022-11-27T14:30:46;-4.30;99.90
29403;DHT22;16382;59.942;30.472;2022-11-27T14:33:17;-4.20;99.90
29403;DHT22;16382;59.942;30.472;2022-11-27T14:35:48;-4.30;99.90
29403;DHT22;16382;59.942;30.472;2022-11-27T14:38:16;-4.20;99.90
29403;DHT22;16382;59.942;30.472;2022-11-27T14:40:44;-4.20;99.90
29403;DHT22;16382;59.942;30.472;2022-11-27T14:43:16;-4.20;99.90
29403;DHT22;16382;59.942;30.472;2022-11-27T14:45:46;-4.20;99.90
29403;DHT22;16382;59.942;30.472;2022-11-27T14:48:29;-4.30;99.90
29403;DHT22;16382;59.942;30.472;2022-11-27T14:50:58;-4.30;99.90
29403;DHT22;16382;59.942;30.472;2022-11-27T14:53:29;-4.20;99.90
29403;DHT22;16382;59.942;30.472;2022-11-27T14:55:58;-4.20;99.90
29403;DHT22;16382;59.942;30.472;2022-11-27T14:58:27;-4.20;99.90
29403;DHT22;16382;59.942;30.472;2022-11-27T15:00:59;-4.10;99.90
29403;DHT22;16382;59.942;30.472;2022-11-27T15:03:27;-4.10;99.90
29403;DHT22;16382;59.942;30.472;2022-11-27T15:05:57;-4.10;99.90
29403;DHT22;16382;59.942;30.472;2022-11-27T15:08:26;-4.10;99.90
29403;DHT22;16382;59.942;30.472;2022-11-27T15:10:56;-4.10;99.90
29403;DHT22;16382;59.942;30.472;2022-11-27T15:13:28;-4.10;99.90
29403;DHT22;16382;59.942;30.472;2022-11-27T15:16:00;-4.10;99.90
29403;DHT22;16382;59.942;30.472;2022-11-27T15:18:31;-4.00;99.90
29403;DHT22;16382;59.942;30.472;2022-11-27T15:21:01;-4.10;99.90
29403;DHT22;16382;59.942;30.472;2022-11-27T15:23:36;-4.00;99.90
29403;DHT22;16382;59.942;30.472;2022-11-27T15:26:08;-4.00;99.90
29403;DHT22;16382;59.942;30.472;2022-11-27T15:28:48;-4.00;99.90
29403;DHT22;16382;59.942;30.472;2022-11-27T15:31:24;-4.00;99.90
29403;DHT22;16382;59.942;30.472;2022-11-27T15:33:56;-4.10;99.90
29403;DHT22;16382;59.942;30.472;2022-11-27T15:36:25;-4.10;99.90
29403;DHT22;16382;59.942;30.472;2022-11-27T15:39:03;-4.10;99.90
29403;DHT22;16382;59.942;30.472;2022-11-27T15:41:49;-4.10;99.90
29403;DHT22;16382;59.942;30.472;2022-11-27T15:44:19;-4.10;99.90
29403;DHT22;16382;59.942;30.472;2022-11-27T15:46:46;-4.10;99.90
29403;DHT22;16382;59.942;30.472;2022-11-27T15:49:18;-4.10;99.90
29403;DHT22;16382;59.942;30.472;2022-11-27T15:51:47;-4.10;99.90
29403;DHT22;16382;59.942;30.472;2022-11-27T15:54:15;-4.10;99.90